createdAt,value
2023-05-01T00:02:27.397Z,99.90
2023-05-01T00:04:57.716Z,99.90
2023-05-01T00:07:31.074Z,99.90
2023-05-01T00:10:01.248Z,99.90
2023-05-01T00:12:33.930Z,99.90
2023-05-01T00:15:03.852Z,99.90
2023-05-01T00:17:33.984Z,99.90
2023-05-01T00:20:05.367Z,99.90
2023-05-01T00:22:35.373Z,99.90
2023-05-01T00:25:05.290Z,99.90
2023-05-01T00:27:37.806Z,99.90
2023-05-01T00:30:09.525Z,99.90
2023-05-01T00:32:39.420Z,99.90
2023-05-01T00:35:09.838Z,99.90
2023-05-01T00:37:39.795Z,99.90
2023-05-01T00:40:11.449Z,99.90
2023-05-01T00:42:44.062Z,99.90
2023-05-01T00:45:14.666Z,99.90
2023-05-01T00:47:44.685Z,99.90
2023-05-01T00:50:15.144Z,99.90
2023-05-01T00:52:45.300Z,99.90
2023-05-01T00:55:15.298Z,99.90
2023-05-01T00:57:48.664Z,99.90
2023-05-01T01:00:19.636Z,99.90
2023-05-01T01:02:49.606Z,99.90
2023-05-01T01:05:19.649Z,99.90
2023-05-01T01:07:58.314Z,99.90
2023-05-01T01:10:38.202Z,99.90
2023-05-01T01:13:28.449Z,99.90
2023-05-01T01:16:07.341Z,99.90
2023-05-01T01:18:43.101Z,99.90
2023-05-01T01:21:18.145Z,99.90
2023-05-01T01:24:22.321Z,99.90
2023-05-01T01:27:33.559Z,99.90
2023-05-01T01:30:32.277Z,99.90
2023-05-01T01:33:26.357Z,99.90
2023-05-01T01:36:04.613Z,99.90
2023-05-01T01:38:43.310Z,99.90
2023-05-01T01:41:18.631Z,99.90
2023-05-01T01:43:56.204Z,99.90
2023-05-01T01:46:27.832Z,99.90
2023-05-01T01:48:59.254Z,99.90
2023-05-01T01:51:33.094Z,99.90
2023-05-01T01:54:05.020Z,99.90
2023-05-01T01:56:38.256Z,99.90
2023-05-01T01:59:08.864Z,99.90
2023-05-01T02:01:42.305Z,99.90
2023-05-01T02:04:13.680Z,99.90
2023-05-01T02:06:48.688Z,99.90
2023-05-01T02:09:22.656Z,99.90
2023-05-01T02:11:55.065Z,99.90
2023-05-01T02:14:29.043Z,99.90
2023-05-01T02:16:59.887Z,99.90
2023-05-01T02:19:31.969Z,99.90
2023-05-01T02:22:06.093Z,99.90
2023-05-01T02:24:38.370Z,99.90
2023-05-01T02:27:14.162Z,99.90
2023-05-01T02:29:44.500Z,99.90
2023-05-01T02:32:14.757Z,99.90
2023-05-01T02:34:44.912Z,99.90
2023-05-01T02:37:17.983Z,99.90
2023-05-01T02:39:49.381Z,99.90
2023-05-01T02:42:22.542Z,99.90
2023-05-01T02:45:05.324Z,99.90
2023-05-01T02:47:38.113Z,99.90
2023-05-01T02:50:10.432Z,99.90
2023-05-01T02:52:43.790Z,99.90
2023-05-01T02:55:34.914Z,99.90
2023-05-01T02:58:05.365Z,99.90
2023-05-01T03:00:35.683Z,99.90
2023-05-01T03:03:05.660Z,99.90
2023-05-01T03:05:35.682Z,99.90
2023-05-01T03:08:08.825Z,99.90
2023-05-01T03:10:38.699Z,99.90
2023-05-01T03:13:10.513Z,99.90
2023-05-01T03:15:40.608Z,99.90
2023-05-01T03:18:10.649Z,99.90
2023-05-01T03:20:40.599Z,99.90
2023-05-01T03:23:13.107Z,99.90
2023-05-01T03:25:43.083Z,99.90
2023-05-01T03:28:13.057Z,99.90
2023-05-01T03:30:43.895Z,99.90
2023-05-01T03:33:14.130Z,99.90
2023-05-01T03:35:44.169Z,99.90
2023-05-01T03:38:16.966Z,99.90
2023-05-01T03:41:16.100Z,99.90
2023-05-01T03:44:04.671Z,99.90
2023-05-01T03:46:44.694Z,99.90
2023-05-01T03:49:22.424Z,99.90
2023-05-01T03:51:52.503Z,99.90
2023-05-01T03:54:26.053Z,99.90
2023-05-01T03:57:01.893Z,99.90
2023-05-01T03:59:32.519Z,99.90
2023-05-01T04:02:02.604Z,99.90
2023-05-01T04:04:36.128Z,99.90
2023-05-01T04:07:06.075Z,99.90
2023-05-01T04:09:38.615Z,99.90
2023-05-01T04:12:08.585Z,99.90
2023-05-01T04:14:38.603Z,99.90
2023-05-01T04:17:08.758Z,99.90
2023-05-01T04:19:41.349Z,99.90
2023-05-01T04:22:11.319Z,99.90
2023-05-01T04:24:45.832Z,99.90
2023-05-01T04:27:15.801Z,99.90
2023-05-01T04:29:45.701Z,99.90
2023-05-01T04:32:15.713Z,99.90
2023-05-01T04:34:46.173Z,99.90
2023-05-01T04:37:18.111Z,99.90
2023-05-01T04:39:51.105Z,99.90
2023-05-01T04:42:22.338Z,99.90
2023-05-01T04:44:52.339Z,99.90
2023-05-01T04:47:23.927Z,99.90
2023-05-01T04:49:53.910Z,99.90
2023-05-01T04:52:23.898Z,99.90
2023-05-01T04:55:01.193Z,99.90
2023-05-01T04:57:33.441Z,99.90
2023-05-01T05:00:06.382Z,99.90
2023-05-01T05:02:37.769Z,99.90
2023-05-01T05:05:08.833Z,99.90
2023-05-01T05:07:38.762Z,99.90
2023-05-01T05:10:29.740Z,99.90
2023-05-01T05:13:13.841Z,99.90
2023-05-01T05:15:43.795Z,99.90
2023-05-01T05:18:15.130Z,99.90
2023-05-01T05:20:45.190Z,99.90
2023-05-01T05:23:15.341Z,99.90
2023-05-01T05:25:47.848Z,99.90
2023-05-01T05:28:17.787Z,99.90
2023-05-01T05:30:48.104Z,99.90
2023-05-01T05:33:20.561Z,99.90
2023-05-01T05:35:50.816Z,99.90
2023-05-01T05:38:21.012Z,99.90
2023-05-01T05:40:59.467Z,99.90
2023-05-01T05:43:29.405Z,99.90
2023-05-01T05:46:01.147Z,99.90
2023-05-01T05:48:32.412Z,99.90
2023-05-01T05:51:02.412Z,99.90
2023-05-01T05:53:32.415Z,99.90
2023-05-01T05:56:05.166Z,99.90
2023-05-01T05:58:35.508Z,99.90
2023-05-01T06:01:07.139Z,99.90
2023-05-01T06:03:38.617Z,99.90
2023-05-01T06:06:09.110Z,99.90
2023-05-01T06:08:39.714Z,99.90
2023-05-01T06:11:16.115Z,99.90
2023-05-01T06:13:46.193Z,99.90
2023-05-01T06:16:16.196Z,99.90
2023-05-01T06:18:46.196Z,99.90
2023-05-01T06:21:16.490Z,99.90
2023-05-01T06:23:47.029Z,99.90
2023-05-01T06:26:31.578Z,99.90
2023-05-01T06:29:01.477Z,99.90
2023-05-01T06:31:32.381Z,99.90
2023-05-01T06:34:02.359Z,99.90
2023-05-01T06:36:40.019Z,99.90
2023-05-01T06:39:09.936Z,99.90
2023-05-01T06:41:42.414Z,99.90
2023-05-01T06:44:12.483Z,99.90
2023-05-01T06:46:42.458Z,99.90
2023-05-01T06:49:12.389Z,99.90
2023-05-01T06:51:42.394Z,99.90
2023-05-01T06:54:12.237Z,99.90
2023-05-01T06:56:44.749Z,99.90
2023-05-01T06:59:14.652Z,99.90
2023-05-01T07:01:44.672Z,99.90
2023-05-01T07:04:14.942Z,99.90
2023-05-01T07:06:44.990Z,99.90
2023-05-01T07:09:15.523Z,99.90
2023-05-01T07:11:48.076Z,99.90
2023-05-01T07:14:18.472Z,99.90
2023-05-01T07:16:48.506Z,99.90
2023-05-01T07:19:18.475Z,99.90
2023-05-01T07:21:48.365Z,99.90
2023-05-01T07:24:18.253Z,99.90
2023-05-01T07:26:51.581Z,99.90
2023-05-01T07:29:21.424Z,99.90
2023-05-01T07:31:51.372Z,99.90
2023-05-01T07:34:21.359Z,99.90
2023-05-01T07:36:51.221Z,99.90
2023-05-01T07:39:21.086Z,99.90
2023-05-01T07:41:53.569Z,99.90
2023-05-01T07:44:23.591Z,99.90
2023-05-01T07:46:53.546Z,99.90
2023-05-01T07:49:23.859Z,99.90
2023-05-01T07:51:53.731Z,99.90
2023-05-01T07:54:24.814Z,99.90
2023-05-01T07:56:57.597Z,99.90
2023-05-01T07:59:27.497Z,99.90
2023-05-01T08:01:57.632Z,99.90
2023-05-01T08:04:27.623Z,99.90
2023-05-01T08:06:57.621Z,99.90
2023-05-01T08:09:27.600Z,99.90
2023-05-01T08:12:00.472Z,99.90
2023-05-01T08:14:30.342Z,99.90
2023-05-01T08:17:00.288Z,99.90
2023-05-01T08:19:30.204Z,99.90
2023-05-01T08:22:00.038Z,99.90
2023-05-01T08:24:30.254Z,99.90
2023-05-01T08:27:02.772Z,99.90
2023-05-01T08:29:32.747Z,99.90
2023-05-01T08:32:02.849Z,99.90
2023-05-01T08:34:32.798Z,99.90
2023-05-01T08:37:02.858Z,99.90
2023-05-01T08:39:32.688Z,99.90
2023-05-01T08:42:05.871Z,99.90
2023-05-01T08:44:37.786Z,99.90
2023-05-01T08:47:15.341Z,99.90
2023-05-01T08:49:46.804Z,99.90
2023-05-01T08:52:18.224Z,99.90
2023-05-01T08:54:48.965Z,99.90
2023-05-01T08:57:21.919Z,99.90
2023-05-01T08:59:54.491Z,99.90
2023-05-01T09:02:26.213Z,99.90
2023-05-01T09:04:56.933Z,99.90
2023-05-01T09:07:27.531Z,99.90
2023-05-01T09:09:57.788Z,99.90
2023-05-01T09:12:31.034Z,99.90
2023-05-01T09:15:00.972Z,99.90
2023-05-01T09:17:32.060Z,99.90
2023-05-01T09:20:02.075Z,99.90
2023-05-01T09:22:34.159Z,99.90
2023-05-01T09:25:04.413Z,99.20
2023-05-01T09:27:39.871Z,98.50
2023-05-01T09:30:11.334Z,99.90
2023-05-01T09:32:42.689Z,97.70
2023-05-01T09:35:15.045Z,97.50
2023-05-01T09:37:47.491Z,98.10
2023-05-01T09:40:18.034Z,95.70
2023-05-01T09:42:56.239Z,96.10
2023-05-01T09:45:26.826Z,96.50
2023-05-01T09:48:11.468Z,95.80
2023-05-01T09:50:42.346Z,96.20
2023-05-01T09:53:13.347Z,94.40
2023-05-01T09:55:43.273Z,93.70
2023-05-01T09:58:30.049Z,91.20
2023-05-01T10:01:00.562Z,89.00
2023-05-01T10:03:32.094Z,86.40
2023-05-01T10:06:03.183Z,83.20
2023-05-01T10:08:48.418Z,83.00
2023-05-01T10:11:18.626Z,83.00
2023-05-01T10:14:09.762Z,84.40
2023-05-01T10:16:41.530Z,84.10
2023-05-01T10:19:13.518Z,83.50
2023-05-01T10:21:43.470Z,83.90
2023-05-01T10:24:15.325Z,82.20
2023-05-01T10:26:46.562Z,82.10
2023-05-01T10:29:19.535Z,81.40
2023-05-01T10:31:49.588Z,83.20
2023-05-01T10:34:21.069Z,84.00
2023-05-01T10:36:57.186Z,84.60
2023-05-01T10:39:34.011Z,84.50
2023-05-01T10:42:11.213Z,85.90
2023-05-01T10:44:48.024Z,87.40
2023-05-01T10:47:48.831Z,87.50
2023-05-01T10:50:19.540Z,88.00
2023-05-01T10:53:19.577Z,88.70
2023-05-01T10:55:51.176Z,88.10
2023-05-01T10:58:52.045Z,88.00
2023-05-01T11:01:36.758Z,88.50
2023-05-01T11:04:08.780Z,90.20
2023-05-01T11:06:39.808Z,90.10
2023-05-01T11:09:43.033Z,90.10
2023-05-01T11:12:14.574Z,90.40
2023-05-01T11:15:08.557Z,90.10
2023-05-01T11:17:53.429Z,90.80
2023-05-01T11:20:52.704Z,90.70
2023-05-01T11:23:25.693Z,90.70
2023-05-01T11:26:07.534Z,90.90
2023-05-01T11:28:38.466Z,91.10
2023-05-01T11:31:08.712Z,91.50
2023-05-01T11:33:41.487Z,91.60
2023-05-01T11:36:11.561Z,91.50
2023-05-01T11:38:41.432Z,91.00
2023-05-01T11:41:11.644Z,91.10
2023-05-01T11:43:53.117Z,91.30
2023-05-01T11:46:30.560Z,91.40
2023-05-01T11:49:04.828Z,91.50
2023-05-01T11:51:34.948Z,91.50
2023-05-01T11:54:06.646Z,91.30
2023-05-01T11:56:37.490Z,91.20
2023-05-01T11:59:15.825Z,91.40
2023-05-01T12:01:47.253Z,92.10
2023-05-01T12:04:31.310Z,92.10
2023-05-01T12:07:02.271Z,91.60
2023-05-01T12:09:32.904Z,91.80
2023-05-01T12:12:03.937Z,92.30
2023-05-01T12:14:34.103Z,92.50
2023-05-01T12:17:04.378Z,92.30
2023-05-01T12:19:37.090Z,92.20
2023-05-01T12:22:10.485Z,92.50
2023-05-01T12:24:40.499Z,92.80
2023-05-01T12:27:10.735Z,93.10
2023-05-01T12:29:44.904Z,93.90
2023-05-01T12:32:14.862Z,93.70
2023-05-01T12:34:48.530Z,94.40
2023-05-01T12:37:18.442Z,94.50
2023-05-01T12:39:48.628Z,94.90
2023-05-01T12:42:18.873Z,96.90
2023-05-01T12:44:49.205Z,99.90
2023-05-01T12:47:19.160Z,99.90
2023-05-01T12:49:52.046Z,99.90
2023-05-01T12:52:29.834Z,99.90
2023-05-01T12:55:05.613Z,99.70
2023-05-01T12:57:35.575Z,98.60
2023-05-01T13:00:07.729Z,98.30
2023-05-01T13:02:37.916Z,97.80
2023-05-01T13:05:14.771Z,96.70
2023-05-01T13:07:51.504Z,96.90
2023-05-01T13:10:34.030Z,96.10
2023-05-01T13:13:04.247Z,95.50
2023-05-01T13:15:34.191Z,95.10
2023-05-01T13:18:07.403Z,93.10
2023-05-01T13:20:41.318Z,91.90
2023-05-01T13:23:13.703Z,90.70
2023-05-01T13:25:43.847Z,91.00
2023-05-01T13:28:20.243Z,91.10
2023-05-01T13:30:50.169Z,91.50
2023-05-01T13:33:20.145Z,92.20
2023-05-01T13:35:52.644Z,93.00
2023-05-01T13:38:24.812Z,94.00
2023-05-01T13:40:54.698Z,94.70
2023-05-01T13:43:24.716Z,96.70
2023-05-01T13:45:54.790Z,99.90
2023-05-01T13:48:24.720Z,99.90
2023-05-01T13:50:57.144Z,99.90
2023-05-01T13:53:27.211Z,99.90
2023-05-01T13:55:57.737Z,99.90
2023-05-01T13:58:28.519Z,99.90
2023-05-01T14:00:58.721Z,99.90
2023-05-01T14:03:28.939Z,99.90
2023-05-01T14:06:01.517Z,99.90
2023-05-01T14:08:32.718Z,99.90
2023-05-01T14:11:02.893Z,99.90
2023-05-01T14:13:33.576Z,99.90
2023-05-01T14:16:05.516Z,99.90
2023-05-01T14:18:35.677Z,99.90
2023-05-01T14:21:08.360Z,99.90
2023-05-01T14:23:38.675Z,99.90
2023-05-01T14:26:09.080Z,99.90
2023-05-01T14:28:44.808Z,99.90
2023-05-01T14:31:19.940Z,99.90
2023-05-01T14:33:49.972Z,99.90
2023-05-01T14:36:22.615Z,99.90
2023-05-01T14:38:53.336Z,99.90
2023-05-01T14:41:23.780Z,99.90
2023-05-01T14:43:55.043Z,99.90
2023-05-01T14:46:32.283Z,99.90
2023-05-01T14:49:03.228Z,99.90
2023-05-01T14:51:36.627Z,99.90
2023-05-01T14:54:07.814Z,99.90
2023-05-01T14:56:37.713Z,99.90
2023-05-01T14:59:07.877Z,99.90
2023-05-01T15:01:37.929Z,99.90
2023-05-01T15:04:11.194Z,99.90
2023-05-01T15:06:44.005Z,99.90
2023-05-01T15:09:14.936Z,99.90
2023-05-01T15:11:44.844Z,99.90
2023-05-01T15:14:14.802Z,99.90
2023-05-01T15:16:44.723Z,99.90
2023-05-01T15:19:14.626Z,99.90
2023-05-01T15:21:47.196Z,99.90
2023-05-01T15:24:19.653Z,99.90
2023-05-01T15:26:49.979Z,99.90
2023-05-01T15:29:19.951Z,99.90
2023-05-01T15:31:58.305Z,99.90
2023-05-01T15:34:34.628Z,99.90
2023-05-01T15:37:07.211Z,99.90
2023-05-01T15:39:38.200Z,99.90
2023-05-01T15:42:08.055Z,99.90
2023-05-01T15:44:38.064Z,99.90
2023-05-01T15:47:08.151Z,99.90
2023-05-01T15:49:38.113Z,99.90
2023-05-01T15:52:11.928Z,99.90
2023-05-01T15:54:42.526Z,99.90
2023-05-01T15:57:17.866Z,99.90
2023-05-01T15:59:51.399Z,99.90
2023-05-01T16:02:21.931Z,99.90
2023-05-01T16:04:52.049Z,99.90
2023-05-01T16:07:24.694Z,99.90
2023-05-01T16:09:55.606Z,99.90
2023-05-01T16:12:25.710Z,99.90
2023-05-01T16:14:55.749Z,99.90
2023-05-01T16:17:25.727Z,99.90
2023-05-01T16:19:55.873Z,99.90
2023-05-01T16:22:28.666Z,99.90
2023-05-01T16:25:01.437Z,99.90
2023-05-01T16:27:31.611Z,99.90
2023-05-01T16:30:02.170Z,99.90
2023-05-01T16:32:32.365Z,99.90
2023-05-01T16:35:03.570Z,99.90
2023-05-01T16:37:36.818Z,99.90
2023-05-01T16:40:10.666Z,99.90
2023-05-01T16:42:40.858Z,99.90
2023-05-01T16:45:12.398Z,99.90
2023-05-01T16:47:42.415Z,99.90
2023-05-01T16:50:13.482Z,99.90
2023-05-01T16:52:46.027Z,99.90
2023-05-01T16:55:16.274Z,99.90
2023-05-01T16:57:46.257Z,99.90
2023-05-01T17:00:17.675Z,99.90
2023-05-01T17:02:49.779Z,99.90
2023-05-01T17:05:20.030Z,99.90
2023-05-01T17:07:53.153Z,99.90
2023-05-01T17:10:23.568Z,99.90
2023-05-01T17:12:53.570Z,99.90
2023-05-01T17:15:23.468Z,99.90
2023-05-01T17:17:53.362Z,99.90
2023-05-01T17:20:23.600Z,99.90
2023-05-01T17:22:56.095Z,99.90
2023-05-01T17:25:26.554Z,99.90
2023-05-01T17:27:56.402Z,99.90
2023-05-01T17:30:27.067Z,99.90
2023-05-01T17:32:57.813Z,99.90
2023-05-01T17:35:27.792Z,99.90
2023-05-01T17:38:00.376Z,99.90
2023-05-01T17:40:31.062Z,99.90
2023-05-01T17:43:01.126Z,99.90
2023-05-01T17:45:32.082Z,99.90
2023-05-01T17:48:02.667Z,99.90
2023-05-01T17:50:32.791Z,99.90
2023-05-01T17:53:05.257Z,99.90
2023-05-01T17:55:37.231Z,99.90
2023-05-01T17:58:07.184Z,99.90
2023-05-01T18:00:37.131Z,99.90
2023-05-01T18:03:08.953Z,99.90
2023-05-01T18:05:39.031Z,99.90
2023-05-01T18:08:11.516Z,99.90
2023-05-01T18:10:41.691Z,99.90
2023-05-01T18:13:12.850Z,99.90
2023-05-01T18:15:42.846Z,99.90
2023-05-01T18:18:12.873Z,99.90
2023-05-01T18:20:42.794Z,99.90
2023-05-01T18:23:15.211Z,99.90
2023-05-01T18:25:45.296Z,99.90
2023-05-01T18:28:16.638Z,99.90
2023-05-01T18:30:46.883Z,99.90
2023-05-01T18:33:16.891Z,99.90
2023-05-01T18:35:46.903Z,99.90
2023-05-01T18:38:19.382Z,99.90
2023-05-01T18:40:49.322Z,99.90
2023-05-01T18:43:19.289Z,99.90
2023-05-01T18:45:49.302Z,99.90
2023-05-01T18:48:19.725Z,99.90
2023-05-01T18:50:57.517Z,99.90
2023-05-01T18:53:39.506Z,99.90
2023-05-01T18:56:09.612Z,99.90
2023-05-01T18:58:40.086Z,99.90
2023-05-01T19:01:10.769Z,99.90
2023-05-01T19:03:40.688Z,99.90
2023-05-01T19:06:10.688Z,99.90
2023-05-01T19:08:43.351Z,99.90
2023-05-01T19:11:13.304Z,99.90
2023-05-01T19:13:43.259Z,99.90
2023-05-01T19:16:13.867Z,99.90
2023-05-01T19:18:44.503Z,99.90
2023-05-01T19:21:15.503Z,99.90
2023-05-01T19:23:49.131Z,99.90
2023-05-01T19:26:19.001Z,99.90
2023-05-01T19:28:48.885Z,99.90
2023-05-01T19:31:20.039Z,99.90
2023-05-01T19:33:50.121Z,99.90
2023-05-01T19:36:20.191Z,99.90
2023-05-01T19:38:52.768Z,99.90
2023-05-01T19:41:22.803Z,99.90
2023-05-01T19:43:52.739Z,99.90
2023-05-01T19:46:22.793Z,99.90
2023-05-01T19:48:53.636Z,99.90
2023-05-01T19:51:23.616Z,99.90
2023-05-01T19:53:57.084Z,99.90
2023-05-01T19:56:27.139Z,99.90
2023-05-01T19:58:57.082Z,99.90
2023-05-01T20:01:29.861Z,99.90
2023-05-01T20:03:59.860Z,99.90
2023-05-01T20:06:29.874Z,99.90
2023-05-01T20:09:02.420Z,99.90
2023-05-01T20:11:32.837Z,99.90
2023-05-01T20:14:03.672Z,99.90
2023-05-01T20:16:33.557Z,99.90
2023-05-01T20:19:03.992Z,99.90
2023-05-01T20:21:33.960Z,99.90
2023-05-01T20:24:06.730Z,99.90
2023-05-01T20:26:36.615Z,99.90
2023-05-01T20:29:06.541Z,99.90
2023-05-01T20:31:36.557Z,99.90
2023-05-01T20:34:06.655Z,99.90
2023-05-01T20:36:36.657Z,99.90
2023-05-01T20:39:09.196Z,99.90
2023-05-01T20:41:39.158Z,99.90
2023-05-01T20:44:09.743Z,99.90
2023-05-01T20:46:39.697Z,99.90
2023-05-01T20:49:10.377Z,99.90
2023-05-01T20:51:40.327Z,99.90
2023-05-01T20:54:12.961Z,99.90
2023-05-01T20:56:42.851Z,99.90
2023-05-01T20:59:13.791Z,99.90
2023-05-01T21:01:43.894Z,99.90
2023-05-01T21:04:13.906Z,99.90
2023-05-01T21:06:44.070Z,99.90
2023-05-01T21:09:17.525Z,99.90
2023-05-01T21:11:47.398Z,99.90
2023-05-01T21:14:17.326Z,99.90
2023-05-01T21:16:47.355Z,99.90
2023-05-01T21:19:18.129Z,99.90
2023-05-01T21:21:48.060Z,99.90
2023-05-01T21:24:25.460Z,99.90
2023-05-01T21:26:56.739Z,99.90
2023-05-01T21:29:26.907Z,99.90
2023-05-01T21:31:56.862Z,99.90
2023-05-01T21:34:26.879Z,99.90
2023-05-01T21:36:56.982Z,99.90
2023-05-01T21:39:30.134Z,99.90
2023-05-01T21:42:01.693Z,99.90
2023-05-01T21:44:33.473Z,99.90
2023-05-01T21:47:04.370Z,99.90
2023-05-01T21:49:34.448Z,99.90
2023-05-01T21:52:04.818Z,99.90
2023-05-01T21:54:39.038Z,99.90
2023-05-01T21:57:09.282Z,99.90
2023-05-01T21:59:41.504Z,99.90
2023-05-01T22:02:13.692Z,99.90
2023-05-01T22:04:44.399Z,99.90
2023-05-01T22:07:14.289Z,99.90
2023-05-01T22:09:46.840Z,99.90
2023-05-01T22:12:16.829Z,99.90
2023-05-01T22:14:49.147Z,99.90
2023-05-01T22:17:24.491Z,99.90
2023-05-01T22:19:54.480Z,99.90
2023-05-01T22:22:24.354Z,99.90
2023-05-01T22:24:57.009Z,99.90
2023-05-01T22:27:27.056Z,99.90
2023-05-01T22:29:57.309Z,99.90
2023-05-01T22:32:28.366Z,99.90
2023-05-01T22:34:58.339Z,99.90
2023-05-01T22:37:28.222Z,99.90
2023-05-01T22:40:00.877Z,99.90
2023-05-01T22:42:31.147Z,99.90
2023-05-01T22:45:01.071Z,99.90
2023-05-01T22:47:31.066Z,99.90
2023-05-01T22:50:01.622Z,99.90
2023-05-01T22:52:31.796Z,99.90
2023-05-01T22:55:04.299Z,99.90
2023-05-01T22:57:34.445Z,99.90
2023-05-01T23:00:04.517Z,99.90
2023-05-01T23:02:36.045Z,99.90
2023-05-01T23:05:06.255Z,99.90
2023-05-01T23:07:36.788Z,99.90
2023-05-01T23:10:10.361Z,99.90
2023-05-01T23:12:45.244Z,99.90
2023-05-01T23:15:17.258Z,99.90
2023-05-01T23:17:47.446Z,99.90
2023-05-01T23:20:23.826Z,99.90
2023-05-01T23:22:54.435Z,99.90
2023-05-01T23:25:28.525Z,99.90
2023-05-01T23:27:59.178Z,99.90
2023-05-01T23:30:29.222Z,99.90
2023-05-01T23:33:01.557Z,99.90
2023-05-01T23:35:31.730Z,99.90
2023-05-01T23:38:01.647Z,99.90
2023-05-01T23:40:34.116Z,99.90
2023-05-01T23:43:04.079Z,99.90
2023-05-01T23:45:34.648Z,99.90
2023-05-01T23:48:05.427Z,99.90
2023-05-01T23:50:35.755Z,99.90
2023-05-01T23:53:08.953Z,99.90
2023-05-01T23:55:43.505Z,99.90
2023-05-01T23:58:14.676Z,99.90
